Time;durP1;ratioP1;P1;durP2;ratioP2;P2;SDS_P1;SDS_P2;PMS_P1;PMS_P2;Temp;Humidity;BMP_temperature;BMP_pressure;BME280_temperature;BME280_humidity;BME280_pressure;Samples;Min_cycle;Max_cycle;Signal;HPM_P1;HPM_P2
2023/06/08 00:01:42;;;;;;;17.48;8.88;;;;;;;13.90;92.60;101685.34;5093422;28;20496;-45
2023/06/08 00:04:08;;;;;;;19.35;9.23;;;;;;;13.87;92.83;101685.28;5092669;28;20016;-45
2023/06/08 00:06:33;;;;;;;16.95;9.15;;;;;;;13.84;92.88;101680.88;5093209;28;20035;-45
2023/06/08 00:09:04;;;;;;;15.50;8.95;;;;;;;13.78;93.62;101678.09;5093201;28;20016;-48
2023/06/08 00:11:29;;;;;;;17.48;9.10;;;;;;;13.76;93.48;101680.66;5092321;28;20032;-43
2023/06/08 00:13:55;;;;;;;17.58;8.85;;;;;;;13.74;93.82;101684.91;5093121;28;20042;-46
2023/06/08 00:16:21;;;;;;;18.85;9.30;;;;;;;13.75;93.76;101678.00;5092243;28;20055;-44
2023/06/08 00:18:49;;;;;;;21.08;9.40;;;;;;;13.73;93.58;101677.97;5093265;28;20030;-45
2023/06/08 00:21:15;;;;;;;14.05;8.95;;;;;;;13.68;94.43;101687.31;5093037;28;20052;-44
2023/06/08 00:23:41;;;;;;;18.70;9.60;;;;;;;13.68;94.63;101689.88;5092418;28;20712;-44
2023/06/08 00:26:06;;;;;;;20.52;9.35;;;;;;;13.69;94.50;101685.59;5093153;28;20464;-46
2023/06/08 00:28:31;;;;;;;20.13;9.40;;;;;;;13.71;94.45;101684.81;5092809;28;20161;-46
2023/06/08 00:30:57;;;;;;;16.15;9.85;;;;;;;13.72;94.93;101675.31;5092363;28;20063;-45
2023/06/08 00:33:23;;;;;;;17.17;9.20;;;;;;;13.72;94.99;101680.50;5092642;28;20158;-46
2023/06/08 00:35:48;;;;;;;20.67;9.73;;;;;;;13.72;94.77;101681.38;5092880;28;20388;-44
2023/06/08 00:38:13;;;;;;;16.55;9.77;;;;;;;13.70;95.22;101675.28;5092076;28;20119;-44
2023/06/08 00:40:39;;;;;;;18.58;10.13;;;;;;;13.70;95.41;101672.69;5092458;28;20185;-45
2023/06/08 00:43:04;;;;;;;18.60;10.68;;;;;;;13.69;95.39;101670.06;5093064;28;20039;-46
2023/06/08 00:45:29;;;;;;;30.33;10.00;;;;;;;13.67;95.95;101670.00;5092062;28;20470;-46
2023/06/08 00:47:55;;;;;;;20.58;10.32;;;;;;;13.66;95.67;101663.94;5092809;28;20109;-44
2023/06/08 00:50:23;;;;;;;17.23;10.18;;;;;;;13.65;95.74;101666.50;5092617;28;20020;-44
2023/06/08 00:52:49;;;;;;;18.67;9.65;;;;;;;13.63;95.89;101657.78;5092288;28;20031;-44
2023/06/08 00:55:19;;;;;;;17.15;9.77;;;;;;;13.62;95.79;101656.03;5093024;28;20024;-44
2023/06/08 00:57:47;;;;;;;22.00;10.48;;;;;;;13.57;96.41;101657.59;5092909;28;20020;-44
2023/06/08 01:00:13;;;;;;;21.75;10.15;;;;;;;13.55;96.46;101656.69;5091904;28;20047;-43
2023/06/08 01:02:40;;;;;;;23.70;10.45;;;;;;;13.53;96.46;101658.34;5092438;28;20388;-45
2023/06/08 01:05:06;;;;;;;22.10;10.70;;;;;;;13.49;96.82;101654.78;5092672;28;20444;-43
2023/06/08 01:07:41;;;;;;;20.80;10.13;;;;;;;13.44;97.48;101654.66;5091540;28;20066;-44
2023/06/08 01:10:07;;;;;;;18.38;10.85;;;;;;;13.37;97.94;101646.66;5092893;28;20028;-44
2023/06/08 01:12:41;;;;;;;20.63;11.02;;;;;;;13.31;98.42;101650.78;5091748;28;20035;-44
2023/06/08 01:15:18;;;;;;;18.15;10.32;;;;;;;13.30;98.77;101651.59;5092698;28;20099;-45
2023/06/08 01:17:57;;;;;;;17.90;9.98;;;;;;;13.26;99.24;101648.84;5092557;28;20077;-43
2023/06/08 01:20:46;;;;;;;21.17;10.82;;;;;;;13.22;99.42;101649.59;5091404;28;20047;-47
2023/06/08 01:23:34;;;;;;;21.20;10.82;;;;;;;13.22;99.57;101650.50;5093823;28;20039;-47
2023/06/08 01:26:00;;;;;;;21.15;11.13;;;;;;;13.18;99.61;101661.53;5096238;28;20032;-47
2023/06/08 01:28:28;;;;;;;23.95;11.52;;;;;;;13.16;99.54;101658.91;5095432;28;20099;-45
2023/06/08 01:30:54;;;;;;;;;;;;;;;13.26;96.92;101654.94;5096791;28;20031;-44
2023/06/08 01:33:22;;;;;;;18.88;11.32;;;;;;;13.07;100.00;101653.44;5095987;28;19912;-45
2023/06/08 01:35:59;;;;;;;22.00;12.00;;;;;;;13.01;100.00;101654.16;5095507;28;20024;-43
2023/06/08 01:38:41;;;;;;;20.33;10.70;;;;;;;12.97;100.00;101651.41;5096648;28;20013;-46
2023/06/08 01:41:11;;;;;;;18.48;11.07;;;;;;;12.87;100.00;101654.50;5095361;28;20112;-44
2023/06/08 01:43:39;;;;;;;19.00;11.45;;;;;;;12.78;100.00;101650.81;5095722;28;20048;-48
2023/06/08 01:46:09;;;;;;;23.85;11.88;;;;;;;12.70;100.00;101647.06;5096004;28;20463;-44
2023/06/08 01:48:37;;;;;;;17.70;12.15;;;;;;;12.64;100.00;101641.66;5095004;28;20021;-44
2023/06/08 01:51:04;;;;;;;23.40;12.75;;;;;;;12.58;100.00;101647.53;5095886;28;20032;-44
2023/06/08 01:53:30;;;;;;;23.02;12.25;;;;;;;12.52;100.00;101637.88;5095746;28;20024;-45
2023/06/08 01:55:55;;;;;;;20.77;12.13;;;;;;;12.46;100.00;101636.75;5095380;28;20028;-44
2023/06/08 01:58:21;;;;;;;21.77;11.27;;;;;;;12.39;100.00;101630.50;5095433;28;20037;-44
2023/06/08 02:00:46;;;;;;;23.00;13.45;;;;;;;12.33;100.00;101625.09;5095674;28;20032;-45
2023/06/08 02:03:11;;;;;;;22.05;11.98;;;;;;;12.27;100.00;101625.78;5094922;28;20027;-43
2023/06/08 02:05:36;;;;;;;21.25;12.02;;;;;;;12.23;100.00;101638.56;5095207;28;20023;-44
2023/06/08 02:08:02;;;;;;;21.73;12.07;;;;;;;12.21;100.00;101640.19;5095467;28;20028;-44
2023/06/08 02:10:28;;;;;;;21.45;12.35;;;;;;;12.11;100.00;101634.72;5094412;28;20032;-44
2023/06/08 02:12:53;;;;;;;22.25;12.07;;;;;;;12.05;100.00;101634.47;5095341;28;20471;-44
2023/06/08 02:15:20;;;;;;;21.35;12.93;;;;;;;11.98;100.00;101628.22;5095166;28;20031;-44
2023/06/08 02:17:46;;;;;;;19.55;12.80;;;;;;;11.92;100.00;101629.66;5094623;28;20024;-45
2023/06/08 02:20:11;;;;;;;21.48;13.15;;;;;;;11.88;100.00;101636.41;5094996;28;20035;-44
2023/06/08 02:22:38;;;;;;;24.17;13.18;;;;;;;11.85;100.00;101641.44;5095121;28;20020;-48
2023/06/08 02:25:05;;;;;;;19.85;12.93;;;;;;;11.82;100.00;101634.47;5094494;28;20115;-44
2023/06/08 02:27:30;;;;;;;22.90;13.20;;;;;;;11.80;100.00;101633.56;5095011;28;20099;-45
2023/06/08 02:29:56;;;;;;;23.65;13.23;;;;;;;11.78;100.00;101631.72;5094245;28;20142;-44
2023/06/08 02:32:22;;;;;;;26.48;14.07;;;;;;;11.70;100.00;101628.88;5094876;28;20028;-44
2023/06/08 02:34:55;;;;;;;23.98;13.45;;;;;;;11.68;100.00;101646.00;5094324;28;20027;-44
2023/06/08 02:37:21;;;;;;;23.15;13.80;;;;;;;11.63;100.00;101645.84;5094121;28;20036;-44
2023/06/08 02:39:46;;;;;;;29.90;13.90;;;;;;;11.59;100.00;101643.06;5095058;28;20031;-44
2023/06/08 02:42:11;;;;;;;26.05;13.98;;;;;;;11.55;100.00;101639.47;5094827;28;20020;-44
2023/06/08 02:44:37;;;;;;;25.45;14.30;;;;;;;11.53;100.00;101643.72;5093696;28;20475;-44
2023/06/08 02:47:03;;;;;;;26.90;14.13;;;;;;;11.47;100.00;101644.34;5095052;28;20111;-48
2023/06/08 02:49:28;;;;;;;25.50;14.65;;;;;;;11.39;100.00;101640.59;5094236;28;20024;-44
2023/06/08 02:51:53;;;;;;;21.80;14.73;;;;;;;11.37;100.00;101642.22;5094138;28;20078;-47
2023/06/08 02:54:19;;;;;;;23.15;14.57;;;;;;;11.33;100.00;101637.78;5094283;28;20027;-44
2023/06/08 02:56:45;;;;;;;23.40;13.90;;;;;;;11.26;100.00;101640.91;5094757;28;20533;-44
2023/06/08 02:59:10;;;;;;;25.38;14.65;;;;;;;11.24;100.00;101640.00;5093751;28;20375;-44
2023/06/08 03:01:36;;;;;;;21.00;14.55;;;;;;;11.18;100.00;101635.47;5094231;28;20028;-44
2023/06/08 03:04:02;;;;;;;28.05;15.70;;;;;;;11.17;100.00;101633.72;5094363;28;20051;-46
2023/06/08 03:06:33;;;;;;;23.58;15.50;;;;;;;11.13;100.00;101637.88;5093515;28;20063;-44
2023/06/08 03:08:58;;;;;;;27.55;16.02;;;;;;;11.10;100.00;101636.88;5094407;28;20439;-46
2023/06/08 03:11:23;;;;;;;26.70;14.32;;;;;;;11.08;100.00;101634.22;5093991;28;20536;-45
2023/06/08 03:13:49;;;;;;;22.48;14.93;;;;;;;11.02;100.00;101631.41;5093541;28;20020;-43
2023/06/08 03:16:15;;;;;;;26.40;15.45;;;;;;;11.03;100.00;101625.44;5094377;28;20026;-44
2023/06/08 03:18:41;;;;;;;25.23;15.57;;;;;;;10.97;100.00;101630.31;5094019;28;20454;-45
2023/06/08 03:21:12;;;;;;;26.67;15.55;;;;;;;10.96;100.00;101628.56;5093055;28;20054;-46
2023/06/08 03:23:38;;;;;;;31.75;15.95;;;;;;;10.94;100.00;101630.22;5093942;28;20016;-48
2023/06/08 03:26:04;;;;;;;26.40;16.73;;;;;;;10.92;100.00;101622.38;5093347;28;20028;-48
2023/06/08 03:28:29;;;;;;;24.88;16.52;;;;;;;10.91;100.00;101630.06;5093599;28;20020;-45
2023/06/08 03:30:55;;;;;;;25.60;16.90;;;;;;;10.91;100.00;101630.06;5093840;28;20056;-47
2023/06/08 03:33:20;;;;;;;29.92;15.98;;;;;;;10.86;100.00;101628.19;5092759;28;20020;-46
2023/06/08 03:35:46;;;;;;;24.45;16.20;;;;;;;10.84;100.00;101634.97;5093779;28;20383;-43
2023/06/08 03:38:11;;;;;;;26.52;16.10;;;;;;;10.86;100.00;101627.31;5093860;28;20020;-46
2023/06/08 03:40:37;;;;;;;31.02;17.63;;;;;;;10.85;100.00;101631.59;5092813;28;20491;-48
2023/06/08 03:43:02;;;;;;;25.42;16.05;;;;;;;10.88;100.00;101638.56;5093840;28;20020;-48
2023/06/08 03:45:27;;;;;;;26.73;16.88;;;;;;;10.90;100.00;101634.38;5093358;28;20035;-48
2023/06/08 03:47:53;;;;;;;25.02;16.42;;;;;;;10.93;100.00;101634.47;5092102;28;20052;-47
2023/06/08 03:50:18;;;;;;;27.05;16.23;;;;;;;10.97;100.00;101641.50;5093435;28;20044;-48
2023/06/08 03:52:43;;;;;;;23.33;15.70;;;;;;;11.00;100.00;101638.19;5093694;28;20042;-48
2023/06/08 03:55:11;;;;;;;28.15;16.63;;;;;;;11.01;100.00;101638.25;5092641;28;20028;-47
2023/06/08 03:57:36;;;;;;;27.38;16.83;;;;;;;11.02;100.00;101628.81;5093285;28;20027;-49
2023/06/08 04:00:02;;;;;;;26.15;16.30;;;;;;;11.01;100.00;101638.25;5093287;28;20095;-48
2023/06/08 04:02:28;;;;;;;26.15;16.90;;;;;;;11.02;100.00;101628.81;5092245;28;20391;-48
2023/06/08 04:04:53;;;;;;;24.67;16.65;;;;;;;11.00;100.00;101630.44;5093443;28;20027;-49
2023/06/08 04:07:20;;;;;;;23.77;16.13;;;;;;;11.02;100.00;101631.41;5093223;28;20077;-47
2023/06/08 04:09:46;;;;;;;27.52;16.10;;;;;;;11.06;100.00;101630.69;5092721;28;20101;-48
2023/06/08 04:12:11;;;;;;;27.95;17.08;;;;;;;11.10;100.00;101630.00;5093331;28;20130;-49
2023/06/08 04:14:36;;;;;;;30.77;16.92;;;;;;;11.15;100.00;101633.63;5092838;28;20070;-47
2023/06/08 04:17:02;;;;;;;29.70;16.65;;;;;;;11.15;100.00;101631.06;5092243;28;20020;-49
2023/06/08 04:19:27;;;;;;;29.38;16.38;;;;;;;11.16;100.00;101634.53;5093067;28;20036;-49
2023/06/08 04:21:56;;;;;;;30.75;18.00;;;;;;;11.14;100.00;101626.75;5092891;28;20044;-48
2023/06/08 04:24:23;;;;;;;26.90;17.02;;;;;;;11.12;100.00;101632.66;5092079;28;20024;-47
2023/06/08 04:26:48;;;;;;;29.65;17.05;;;;;;;11.09;100.00;101623.09;5093051;28;20020;-47
2023/06/08 04:29:13;;;;;;;26.65;17.08;;;;;;;11.09;100.00;101632.50;5092931;28;20447;-46
2023/06/08 04:31:39;;;;;;;30.80;17.48;;;;;;;11.09;100.00;101625.69;5091893;28;20032;-47
2023/06/08 04:34:04;;;;;;;28.15;17.55;;;;;;;11.10;100.00;101629.13;5092860;28;20024;-49
2023/06/08 04:36:29;;;;;;;30.73;16.60;;;;;;;11.10;100.00;101621.38;5091789;28;20020;-46
2023/06/08 04:38:56;;;;;;;26.27;16.25;;;;;;;11.08;100.00;101623.91;5093097;28;20024;-47
2023/06/08 04:41:25;;;;;;;25.13;16.98;;;;;;;11.08;100.00;101629.06;5092504;28;20506;-48
2023/06/08 04:43:50;;;;;;;26.38;16.95;;;;;;;11.07;100.00;101626.44;5092093;28;20024;-50
2023/06/08 04:46:16;;;;;;;27.98;16.80;;;;;;;11.09;100.00;101625.69;5092451;28;20077;-47
2023/06/08 04:48:43;;;;;;;25.80;16.15;;;;;;;11.12;100.00;101620.63;5092964;28;20016;-49
2023/06/08 04:51:09;;;;;;;27.13;17.00;;;;;;;11.15;100.00;101625.03;5092012;28;20521;-47
2023/06/08 04:53:35;;;;;;;24.45;16.35;;;;;;;11.19;100.00;101627.81;5092533;28;20340;-48
2023/06/08 04:56:02;;;;;;;25.50;15.95;;;;;;;11.25;100.00;101627.16;5092814;28;20383;-48
2023/06/08 04:58:29;;;;;;;27.20;16.42;;;;;;;11.31;100.00;101626.50;5093936;28;20024;-48
2023/06/08 05:00:55;;;;;;;28.20;16.40;;;;;;;11.38;100.00;101625.94;5096858;28;20032;-43
2023/06/08 05:03:21;;;;;;;25.80;16.52;;;;;;;11.45;100.00;101633.09;5096663;28;20047;-45
2023/06/08 05:05:47;;;;;;;27.20;16.75;;;;;;;11.48;100.00;101619.44;5096086;28;20372;-49
2023/06/08 05:08:12;;;;;;;28.90;16.60;;;;;;;11.52;100.00;101623.88;5096746;28;20032;-49
2023/06/08 05:10:38;;;;;;;22.02;14.98;;;;;;;11.58;100.00;101625.81;5096330;28;20031;-49
2023/06/08 05:13:03;;;;;;;25.23;17.00;;;;;;;11.60;100.00;101613.84;5095720;28;20449;-48
2023/06/08 05:15:30;;;;;;;25.17;17.08;;;;;;;11.61;100.00;101610.44;5096444;28;20464;-47
2023/06/08 05:17:56;;;;;;;25.52;16.90;;;;;;;11.60;100.00;101629.34;5096538;28;20020;-46
2023/06/08 05:20:23;;;;;;;32.10;16.92;;;;;;;11.58;100.00;101625.81;5095017;28;20040;-49
2023/06/08 05:22:48;;;;;;;;;;;;;;;11.67;100.00;101621.88;5097029;28;20035;-48
2023/06/08 05:25:14;;;;;;;25.53;16.53;;;;;;;11.57;100.00;101629.22;5096386;28;19912;-45
2023/06/08 05:27:39;;;;;;;27.95;17.10;;;;;;;11.57;100.00;101630.09;5095134;28;20025;-44
2023/06/08 05:30:05;;;;;;;29.45;17.42;;;;;;;11.67;100.00;101621.00;5096495;28;20093;-48
2023/06/08 05:32:31;;;;;;;23.92;17.38;;;;;;;11.80;100.00;101618.06;5095843;28;20059;-48
2023/06/08 05:34:56;;;;;;;24.98;16.35;;;;;;;11.97;100.00;101618.69;5095586;28;20066;-48
2023/06/08 05:37:21;;;;;;;25.98;16.45;;;;;;;12.10;100.00;101616.56;5095846;28;20099;-48
2023/06/08 05:39:47;;;;;;;27.83;17.05;;;;;;;12.24;100.00;101614.44;5095318;28;20464;-45
2023/06/08 05:42:12;;;;;;;24.02;16.75;;;;;;;12.34;100.00;101612.25;5095947;28;20028;-45
2023/06/08 05:44:37;;;;;;;23.27;15.93;;;;;;;12.42;100.00;101612.53;5095641;28;20024;-48
2023/06/08 05:47:03;;;;;;;25.77;15.70;;;;;;;12.47;100.00;101607.50;5095022;28;20089;-46
2023/06/08 05:49:28;;;;;;;28.10;16.50;;;;;;;12.54;100.00;101606.88;5095719;28;20034;-47
2023/06/08 05:51:53;;;;;;;26.33;16.23;;;;;;;12.60;100.00;101599.34;5095872;28;20036;-49
2023/06/08 05:54:19;;;;;;;25.00;16.27;;;;;;;12.67;100.00;101605.59;5094772;28;20410;-48
2023/06/08 05:56:44;;;;;;;28.00;16.45;;;;;;;12.70;100.00;101609.97;5095706;28;20024;-49
2023/06/08 05:59:09;;;;;;;25.38;16.23;;;;;;;12.81;100.00;101609.50;5095902;28;20024;-48
2023/06/08 06:01:35;;;;;;;25.33;16.30;;;;;;;12.83;100.00;101605.28;5094400;28;20028;-47
2023/06/08 06:04:01;;;;;;;27.10;16.17;;;;;;;12.94;100.00;101604.75;5095514;28;20492;-49
2023/06/08 06:06:26;;;;;;;28.92;17.45;;;;;;;13.01;100.00;101596.31;5095285;28;20024;-47
2023/06/08 06:08:51;;;;;;;26.67;14.45;;;;;;;13.08;100.00;101597.38;5094450;28;20039;-49
2023/06/08 06:11:17;;;;;;;26.63;16.85;;;;;;;13.21;100.00;101606.41;5094821;28;20529;-48
2023/06/08 06:13:42;;;;;;;25.85;16.40;;;;;;;13.29;100.00;101604.94;5095267;28;20024;-50
2023/06/08 06:16:07;;;;;;;22.88;15.85;;;;;;;13.37;100.00;101607.81;5094870;28;20375;-48
2023/06/08 06:18:33;;;;;;;24.17;16.17;;;;;;;13.49;100.00;101609.06;5094920;28;20047;-45
2023/06/08 06:20:58;;;;;;;25.90;16.77;;;;;;;13.55;100.00;101605.75;5094961;28;20044;-50
2023/06/08 06:23:23;;;;;;;28.33;16.77;;;;;;;13.64;99.47;101605.16;5094120;28;20032;-50
2023/06/08 06:25:50;;;;;;;27.55;16.23;;;;;;;13.69;99.07;101613.06;5095104;28;20032;-48
2023/06/08 06:28:15;;;;;;;24.92;16.85;;;;;;;13.74;98.73;101607.19;5094945;28;20099;-42
2023/06/08 06:30:40;;;;;;;23.48;16.83;;;;;;;13.86;98.74;101616.16;5094546;28;20150;-48
2023/06/08 06:33:05;;;;;;;23.25;15.30;;;;;;;13.94;98.25;101615.53;5095124;28;20460;-45
2023/06/08 06:35:31;;;;;;;24.92;16.20;;;;;;;14.00;97.88;101609.63;5094611;28;20080;-47
2023/06/08 06:37:56;;;;;;;28.80;16.50;;;;;;;14.08;97.77;101618.47;5094341;28;20475;-48
2023/06/08 06:40:22;;;;;;;25.20;15.77;;;;;;;14.15;96.91;101603.97;5094478;28;20020;-48
2023/06/08 06:42:47;;;;;;;28.63;17.10;;;;;;;14.28;96.43;101607.78;5094743;28;20357;-47
2023/06/08 06:45:13;;;;;;;24.65;16.58;;;;;;;14.34;95.78;101607.94;5094074;28;20028;-47
2023/06/08 06:47:39;;;;;;;23.80;16.00;;;;;;;14.46;95.29;101605.69;5094617;28;20026;-48
2023/06/08 06:50:06;;;;;;;25.55;15.43;;;;;;;14.60;93.89;101608.63;5094063;28;20097;-48
2023/06/08 06:52:32;;;;;;;30.27;17.35;;;;;;;14.77;94.74;101610.78;5094347;28;20028;-48
2023/06/08 06:54:58;;;;;;;21.02;15.43;;;;;;;14.90;92.87;101610.25;5094551;28;20028;-50
2023/06/08 06:57:23;;;;;;;26.42;15.82;;;;;;;15.07;93.01;101617.56;5093398;28;20384;-48
2023/06/08 06:59:50;;;;;;;28.27;15.85;;;;;;;15.12;92.01;101619.41;5094738;28;20035;-47
2023/06/08 07:02:15;;;;;;;25.10;16.73;;;;;;;15.08;90.90;101622.78;5094278;28;20024;-44
2023/06/08 07:04:41;;;;;;;24.33;15.63;;;;;;;15.27;91.89;101623.19;5093637;28;20032;-48
2023/06/08 07:07:07;;;;;;;30.25;16.13;;;;;;;15.36;91.03;101623.41;5094469;28;20020;-48
2023/06/08 07:09:32;;;;;;;26.45;14.57;;;;;;;15.52;90.42;101628.94;5093914;28;20537;-45
2023/06/08 07:11:57;;;;;;;22.80;15.48;;;;;;;15.63;90.80;101617.06;5093530;28;20016;-49
2023/06/08 07:14:24;;;;;;;42.05;16.80;;;;;;;15.84;90.47;101626.19;5093693;28;20116;-50
2023/06/08 07:16:50;;;;;;;25.97;16.03;;;;;;;15.95;89.50;101622.06;5093997;28;20460;-48
2023/06/08 07:19:15;;;;;;;26.55;16.25;;;;;;;16.04;89.38;101630.06;5093228;28;20278;-46
2023/06/08 07:21:40;;;;;;;21.25;15.07;;;;;;;16.06;87.83;101625.78;5093553;28;20068;-49
2023/06/08 07:24:06;;;;;;;23.75;15.52;;;;;;;16.16;88.14;101632.00;5093833;28;20028;-48
2023/06/08 07:26:31;;;;;;;30.42;15.77;;;;;;;16.26;87.51;101620.94;5092720;28;20463;-47
2023/06/08 07:28:58;;;;;;;26.35;16.20;;;;;;;16.47;86.85;101624.75;5093964;28;20124;-46
2023/06/08 07:31:24;;;;;;;23.52;15.43;;;;;;;16.55;86.64;101627.50;5093674;28;20040;-47
2023/06/08 07:33:50;;;;;;;22.83;15.38;;;;;;;16.64;86.23;101622.44;5093112;28;20027;-46
2023/06/08 07:36:15;;;;;;;24.05;15.70;;;;;;;16.72;85.43;101626.06;5093392;28;20357;-46
2023/06/08 07:38:41;;;;;;;25.48;15.32;;;;;;;16.83;84.80;101628.84;5093685;28;20036;-49
2023/06/08 07:41:06;;;;;;;25.67;15.30;;;;;;;16.88;84.67;101621.13;5092635;28;20024;-49
2023/06/08 07:43:31;;;;;;;22.42;14.88;;;;;;;16.97;83.57;101610.88;5093448;28;20410;-49
2023/06/08 07:45:57;;;;;;;19.92;13.57;;;;;;;16.96;81.49;101603.91;5093476;28;20019;-49
2023/06/08 07:48:22;;;;;;;25.10;14.45;;;;;;;17.26;84.21;101605.22;5092498;28;20046;-47
2023/06/08 07:50:47;;;;;;;22.50;13.10;;;;;;;17.21;80.63;101599.06;5093587;28;20038;-48
2023/06/08 07:53:14;;;;;;;22.08;14.57;;;;;;;17.37;82.08;101607.97;5093461;28;20389;-50
2023/06/08 07:55:40;;;;;;;24.47;15.80;;;;;;;17.39;81.53;101604.53;5092482;28;20410;-47
2023/06/08 07:58:05;;;;;;;20.20;14.07;;;;;;;17.47;80.95;101606.34;5093511;28;20750;-49
2023/06/08 08:00:31;;;;;;;23.67;14.52;;;;;;;17.63;81.33;101600.50;5092325;28;20048;-49
2023/06/08 08:02:56;;;;;;;20.58;14.85;;;;;;;17.82;81.08;101600.69;5093465;28;20050;-48
2023/06/08 08:05:22;;;;;;;25.35;15.35;;;;;;;17.98;80.59;101607.03;5093135;28;20020;-48
2023/06/08 08:07:47;;;;;;;19.70;13.57;;;;;;;18.14;80.08;101608.94;5092380;28;20464;-50
2023/06/08 08:10:13;;;;;;;22.83;13.68;;;;;;;18.07;77.20;101607.13;5093143;28;20028;-44
2023/06/08 08:12:38;;;;;;;28.42;14.35;;;;;;;18.17;77.57;101602.88;5093054;28;20096;-50
2023/06/08 08:15:04;;;;;;;21.30;14.40;;;;;;;18.18;75.94;101604.59;5092453;28;20475;-46
2023/06/08 08:17:29;;;;;;;18.73;13.32;;;;;;;18.26;75.64;101601.22;5093088;28;20024;-45
2023/06/08 08:19:56;;;;;;;21.13;14.23;;;;;;;18.37;75.97;101609.16;5093009;28;20453;-48
2023/06/08 08:22:22;;;;;;;18.17;13.80;;;;;;;18.49;76.21;101612.72;5092018;28;20070;-46
2023/06/08 08:24:47;;;;;;;22.73;15.30;;;;;;;18.62;76.48;101617.22;5092908;28;20445;-48
2023/06/08 08:27:12;;;;;;;22.02;13.88;;;;;;;18.61;75.11;101607.63;5093066;28;20095;-49
2023/06/08 08:29:38;;;;;;;20.00;13.60;;;;;;;18.80;75.13;101618.22;5091766;28;20111;-49
2023/06/08 08:32:04;;;;;;;22.30;13.55;;;;;;;18.84;74.27;101604.34;5092382;28;20024;-47
2023/06/08 08:34:29;;;;;;;18.90;14.63;;;;;;;19.14;76.37;101608.06;5092330;28;20081;-47
2023/06/08 08:36:55;;;;;;;23.30;14.23;;;;;;;19.28;73.58;101603.78;5092134;28;20024;-47
2023/06/08 08:39:20;;;;;;;18.02;12.77;;;;;;;19.39;72.24;101606.44;5092262;28;20028;-48
2023/06/08 08:41:54;;;;;;;23.23;13.07;;;;;;;19.51;72.65;101603.00;5092852;28;20115;-48
2023/06/08 08:44:20;;;;;;;18.33;12.93;;;;;;;19.68;72.80;101601.34;5091839;28;20020;-46
2023/06/08 08:46:48;;;;;;;18.42;13.13;;;;;;;19.72;70.54;101608.31;5092742;28;20112;-43
2023/06/08 08:49:15;;;;;;;20.20;13.18;;;;;;;19.85;70.83;101597.97;5092761;28;20044;-47
2023/06/08 08:51:52;;;;;;;18.10;11.65;;;;;;;19.79;69.47;101608.34;5091879;28;20099;-45
2023/06/08 08:54:18;;;;;;;17.65;12.63;;;;;;;19.92;69.44;101602.31;5092612;28;20168;-48
2023/06/08 08:56:44;;;;;;;19.52;12.10;;;;;;;20.11;69.23;101594.53;5091996;28;20028;-47
2023/06/08 08:59:10;;;;;;;20.02;11.30;;;;;;;20.20;68.83;101595.41;5092660;28;20034;-44
2023/06/08 09:01:39;;;;;;;15.10;11.15;;;;;;;20.33;68.97;101588.44;5092262;28;20028;-48
2023/06/08 09:04:05;;;;;;;16.63;11.75;;;;;;;20.39;68.04;101585.81;5091813;28;20024;-46
2023/06/08 09:06:30;;;;;;;24.27;11.32;;;;;;;20.55;67.48;101593.69;5092163;28;20027;-48
2023/06/08 09:08:56;;;;;;;17.38;10.57;;;;;;;20.74;66.53;101591.13;5092675;28;20028;-48
2023/06/08 09:11:22;;;;;;;17.08;10.95;;;;;;;20.71;64.08;101586.75;5091616;28;20032;-48
2023/06/08 09:13:47;;;;;;;18.55;11.35;;;;;;;20.80;64.42;101594.59;5092483;28;20440;-49
2023/06/08 09:16:16;;;;;;;19.30;11.00;;;;;;;21.03;64.69;101591.94;5092640;28;20531;-49
2023/06/08 09:18:43;;;;;;;16.50;10.77;;;;;;;21.26;65.22;101582.28;5091631;28;20525;-48
2023/06/08 09:21:22;;;;;;;18.00;11.10;;;;;;;21.50;66.69;101586.56;5092017;28;20097;-47
2023/06/08 09:24:16;;;;;;;18.50;10.80;;;;;;;21.68;63.83;101583.03;5092589;28;20024;-49
2023/06/08 09:26:46;;;;;;;14.43;10.52;;;;;;;21.71;64.03;101583.84;5091753;28;20024;-49
2023/06/08 09:29:40;;;;;;;19.35;10.68;;;;;;;21.91;63.80;101580.28;5090784;28;20085;-48
2023/06/08 09:32:13;;;;;;;13.43;9.05;;;;;;;22.13;61.09;101577.47;5091519;28;20032;-49
2023/06/08 09:34:56;;;;;;;13.20;9.90;;;;;;;22.31;61.56;101593.13;5092334;28;20069;-47
2023/06/08 09:37:27;;;;;;;15.18;9.40;;;;;;;22.41;60.26;101579.94;5092090;28;20024;-48
2023/06/08 09:39:53;;;;;;;11.45;8.43;;;;;;;22.35;58.16;101579.09;5091311;28;20043;-48
2023/06/08 09:42:18;;;;;;;13.48;8.10;;;;;;;22.55;58.48;101575.44;5092083;28;20059;-48
2023/06/08 09:44:44;;;;;;;15.98;9.00;;;;;;;22.79;59.65;101581.38;5092785;28;20052;-49
2023/06/08 09:47:21;;;;;;;14.57;9.02;;;;;;;22.68;57.52;101578.84;5095293;28;20031;-49
2023/06/08 09:49:47;;;;;;;14.45;8.13;;;;;;;22.90;55.06;101583.88;5095817;28;20034;-49
2023/06/08 09:52:13;;;;;;;15.70;8.43;;;;;;;23.17;54.98;101574.88;5095678;28;20031;-46
2023/06/08 09:54:42;;;;;;;13.63;8.20;;;;;;;23.54;53.68;101577.06;5094815;28;20107;-48
2023/06/08 09:57:09;;;;;;;13.25;7.68;;;;;;;23.72;51.43;101572.41;5095864;28;20017;-49
2023/06/08 09:59:42;;;;;;;11.85;7.78;;;;;;;23.94;51.52;101571.28;5095544;28;20115;-48
2023/06/08 10:02:16;;;;;;;13.43;7.20;;;;;;;24.32;52.98;101574.19;5094894;28;20036;-47
2023/06/08 10:04:48;;;;;;;11.52;7.00;;;;;;;24.19;48.36;101570.88;5095506;28;20265;-47
2023/06/08 10:07:17;;;;;;;10.23;6.18;;;;;;;24.56;48.27;101565.03;5094910;28;20032;-50
2023/06/08 10:09:48;;;;;;;10.27;6.63;;;;;;;24.66;47.61;101573.66;5095630;28;20047;-47
2023/06/08 10:12:13;;;;;;;16.05;7.30;;;;;;;24.89;47.30;101570.59;5095581;28;20032;-49
2023/06/08 10:14:40;;;;;;;9.48;6.70;;;;;;;25.57;47.32;101564.00;5094534;28;20020;-49
2023/06/08 10:17:06;;;;;;;10.10;6.72;;;;;;;25.82;44.36;101571.34;5095422;28;20103;-48
2023/06/08 10:19:35;;;;;;;10.47;6.07;;;;;;;25.87;42.44;101566.84;5094994;28;20032;-49
2023/06/08 10:22:01;;;;;;;11.65;6.82;;;;;;;26.52;42.16;101565.31;5094733;28;20024;-48
2023/06/08 10:24:29;;;;;;;10.90;6.95;;;;;;;26.18;41.56;101560.84;5095103;28;20028;-48
2023/06/08 10:27:17;;;;;;;10.45;7.10;;;;;;;26.33;44.72;101561.41;5095348;28;20024;-49
2023/06/08 10:29:56;;;;;;;11.70;7.03;;;;;;;26.34;43.13;101563.13;5094263;28;20035;-47
2023/06/08 10:32:36;;;;;;;15.40;6.70;;;;;;;26.87;41.43;101566.19;5095041;28;20103;-46
2023/06/08 10:35:07;;;;;;;11.25;7.35;;;;;;;26.46;40.47;101562.81;5094818;28;20031;-46
2023/06/08 10:37:34;;;;;;;10.50;6.53;;;;;;;25.93;41.38;101561.41;5094651;28;20042;-46
2023/06/08 10:40:06;;;;;;;14.82;7.05;;;;;;;25.55;41.72;101555.25;5094935;28;20035;-47
2023/06/08 10:42:32;;;;;;;10.52;6.60;;;;;;;25.41;42.65;101555.53;5093697;28;20486;-49
2023/06/08 10:44:58;;;;;;;11.27;6.78;;;;;;;25.05;43.40;101554.47;5094913;28;20466;-49
2023/06/08 10:47:25;;;;;;;10.38;6.88;;;;;;;24.93;43.73;101553.84;5094612;28;20024;-45
2023/06/08 10:50:04;;;;;;;11.73;6.97;;;;;;;24.68;45.19;101552.56;5094014;28;20542;-49
2023/06/08 10:52:39;;;;;;;12.45;7.35;;;;;;;24.45;45.22;101546.78;5094455;28;20070;-48
2023/06/08 10:55:12;;;;;;;12.63;7.05;;;;;;;25.34;44.24;101545.97;5094548;28;20368;-47
2023/06/08 10:57:53;;;;;;;14.57;7.57;;;;;;;26.30;42.75;101549.16;5093715;28;20031;-48
2023/06/08 11:00:25;;;;;;;12.77;7.25;;;;;;;27.34;39.05;101536.63;5094503;28;20020;-49
2023/06/08 11:03:10;;;;;;;11.18;7.70;;;;;;;28.11;37.29;101544.00;5094447;28;20032;-49
2023/06/08 11:05:37;;;;;;;22.17;8.30;;;;;;;28.68;35.66;101541.25;5094229;28;20104;-45
2023/06/08 11:08:03;;;;;;;;;;;;;;;29.58;38.06;101537.91;5094960;28;20024;-49
2023/06/08 11:10:33;;;;;;;10.27;6.53;;;;;;;30.54;32.73;101532.25;5093136;28;20275;-49